Argyle, FL (32422)

11:02 AM CDT on July 30, 2016 (GMT -0500)
Twin Lakes | | Change Station

Elev 276 ft 30.74 °N, 86.15 °W | Updated 2 minutes ago

Scattered Clouds
Scattered Clouds
91.9 °F
Feels Like 105 °F
N
1.1
Wind Variable Wind from North

Today
High -- | Low -- °F
--% Chance of Precip.
Yesterday
High -- | Low -- °F
Precip. -- in
Pressure 30.08 in
Visibility 10.0 miles
Clouds Scattered Clouds 3200 ft
Scattered Clouds 3900 ft
Scattered Clouds 4900 ft
Heat Index 105 °F
Dew Point 76 °F
Humidity 61%
Rainfall 0.00 in
Snow Depth Not available.
6:01 AM 7:39 PM
Waning Crescent, 12% visible
METAR K54J 301555Z AUTO 00000KT 10SM SCT032 SCT039 SCT049 31/23 A3008 RMK AO2 T03050231
Pressure 30.08 in
Visibility 10.0 miles
Clouds Scattered Clouds 3200 ft
Scattered Clouds 3900 ft
Scattered Clouds 4900 ft
Heat Index 105 °F
Dew Point 76 °F
Humidity 61%
Rainfall 0.00 in
Snow Depth Not available.
6:01 AM 7:39 PM
Waning Crescent, 12% visible
METAR K54J 301555Z AUTO 00000KT 10SM SCT032 SCT039 SCT049 31/23 A3008 RMK AO2 T03050231

10-Day Weather Forecast

Almanac

Astronomy

Jul. 30, 2016 Rise Set
Actual Time
Civil Twilight
Nautical Twilight
Astronomical Twilight
Moon
Length of Visible Light
Length of Day
Tomorrow will be .
, % of the Moon is Illuminated

Today's Extremes

State Highs State Lows

Community

WunderPhotos

Upload Photos

1,928,592 photos uploaded!

WunderBlog® & News

Nearby

Air Quality

  Air Quality AQ Index Pollutant
Not available.

Snow Depth

Station Depth Elevation

Earthquake Activity

City Distance Mag. Time & Date
Minimum magnitude displayed is 2.5.

Coastal Water Temperatures

Place Temperature

Stations

Nearby Weather Stations

Station Location Temp. Windchill Dew Point Humidity Wind Precip. Elev Updated Type
                   

Watches & Warnings

There are currently no watches in effect.